• Join FlightAware (Why Join?)
  • Login
  • US Flag 
06:24AM EDT


 

Airport Tracker/Info


-or-


 

Live Flight TrackerFlight Track Log ✈ SWA448 ✈ 29-Jul-2013 ✈ KBWI - KRDU

Flight Track Log - Related Links

Times and Time Zones

All times are in EDT time to prevent confusion due to time zone crossing. See the SWA448 flight status page for this flight to view local times or setup timezone preferences in your user account.

Time Position Orientation Groundspeed Altitude Reporting Facility
EDT Latitude Longitude Course Direction KTS MPH feet Rate Location/Type
08:23AM 39.1667 -76.7167 184° South 179 206 2,000  Level Potomac TRACON
08:24AM 39.1167 -76.7000 165° South 229 264 4,300 2,400 Climbing Potomac TRACON
08:25AM 39.0667 -76.6333 134° Southeast 271 312 6,600 1,620 Climbing Potomac TRACON
08:26AM 39.0167 -76.5667 134° Southeast 287 330 7,600 2,100 Climbing Potomac TRACON
08:27AM 38.9333 -76.5167 155° Southeast 295 339 10,900 3,060 Climbing Potomac TRACON
08:28AM 38.8500 -76.4833 163° South 342 394 13,800 1,200 Climbing Potomac TRACON
08:29AM 38.6769 -76.7073 184° South  Level FlightAware Approximate
08:31AM 38.6692 -76.6128 209° Southwest 330 380 15,200  Level Washington Center
08:32AM 38.5894 -76.6967 219° Southwest 355 409 17,000 900 Climbing Washington Center
08:33AM 38.4828 -76.7189 189° South 372 428 17,000  Level Washington Center
08:34AM 38.3761 -76.7439 190° South 378 435 17,100 1,380 Climbing Washington Center
08:35AM 38.2592 -76.7817 194° South 383 441 19,800 2,400 Climbing Washington Center
08:36AM 38.1503 -76.8222 196° South 398 458 22,000 1,080 Climbing Washington Center
08:37AM 38.0414 -76.8625 196° South 404 465 22,000  Level Washington Center
08:38AM 37.9325 -76.9003 195° South 404 465 22,000  Level Washington Center
08:39AM 37.8319 -76.9381 197° South 410 472 22,000  Level Washington Center
08:40AM 37.7211 -76.9753 195° South 416 479 22,000  Level Washington Center
08:41AM 37.6100 -77.0153 196° South 421 484 22,000  Level Washington Center
08:42AM 37.4844 -77.0600 196° South 421 484 22,000  Level Washington Center
08:43AM 37.3733 -77.1022 197° South 421 484 22,000  Level Washington Center
08:44AM 37.2661 -77.1603 203° Southwest 421 484 22,000 -120 Level Washington Center
08:45AM 37.1692 -77.2314 210° Southwest 415 478 21,800 -600 Descending Washington Center
08:46AM 37.0806 -77.3153 217° Southwest 410 472 20,800 -960 Descending Washington Center
08:47AM 36.9958 -77.3967 218° Southwest 404 465 20,000 -420 Descending Washington Center
08:48AM 36.9089 -77.4778 217° Southwest 399 459 20,000  Level Washington Center
08:49AM 36.8200 -77.5611 217° Southwest 399 459 20,000  Level Washington Center
08:50AM 36.7353 -77.6444 218° Southwest 399 459 20,000  Level Washington Center
08:51AM 36.6461 -77.7250 216° Southwest 399 459 20,000 -120 Level Washington Center
08:52AM 36.5569 -77.8081 217° Southwest 399 459 19,800 -1,140 Descending Washington Center
08:53AM 36.4742 -77.8856 217° Southwest 399 459 17,800 -2,460 Descending Washington Center
08:54AM 36.3956 -77.9608 218° Southwest 386 444 14,900 -2,640 Descending Washington Center
08:55AM 36.3147 -78.0331 216° Southwest 368 423 12,500 -2,280 Descending Washington Center
08:56AM 36.2403 -78.1056 218° Southwest 362 417 10,500 -1,500 Descending Washington Center
08:57AM 36.1844 -78.1808 227° Southwest 315 362 9,600 -1,320 Descending Washington Center
08:58AM 36.1492 -78.2647 243° Southwest 253 291 7,900 -1,560 Descending Washington Center
08:59AM 36.1181 -78.3536 247° West 252 290 6,300 -960 Descending Washington Center
09:00AM 36.0933 -78.4247 247° West 221 254 5,900 -900 Descending Washington Center
09:01AM 36.0664 -78.5033 247° West 209 241 4,400 -1,200 Descending Washington Center
09:02AM 36.0506 -78.5517 248° West 220 253 3,700 -900 Descending Washington Center
09:03AM 36.0261 -78.6200 246° West 220 253 2,900 -660 Descending Washington Center
09:04AM 35.9850 -78.6697 224° Southwest 214 246 2,400 -600 Descending Washington Center
09:05AM 35.9442 -78.7144 222° Southwest 170 196 1,700 -720 Descending Washington Center
09:06AM 35.9161 -78.7517 227° Southwest 144 166 1,000 -720 Descending Washington Center
09:08AM 35.8776 -78.7875 202° Southwest  Level Estimated
09:15AM 35.8776 -78.7875 349° North  Level Estimated